createdAt,value
2018-03-30T00:02:07.401Z,2.50
2018-03-30T00:04:34.862Z,2.50
2018-03-30T00:07:06.727Z,2.50
2018-03-30T00:09:45.990Z,2.50
2018-03-30T00:12:13.476Z,2.50
2018-03-30T00:14:41.705Z,2.50
2018-03-30T00:17:09.168Z,2.50
2018-03-30T00:19:36.633Z,2.50
2018-03-30T00:22:04.099Z,2.50
2018-03-30T00:24:31.555Z,2.50
2018-03-30T00:26:59.016Z,2.50
2018-03-30T00:29:27.251Z,2.40
2018-03-30T00:31:54.709Z,2.40
2018-03-30T00:34:22.183Z,2.40
2018-03-30T00:36:49.640Z,2.40
2018-03-30T00:39:17.097Z,2.40
2018-03-30T00:41:44.560Z,2.40
2018-03-30T00:44:12.786Z,2.40
2018-03-30T00:46:40.246Z,2.40
2018-03-30T00:49:07.722Z,2.40
2018-03-30T00:51:35.181Z,2.40
2018-03-30T00:54:02.644Z,2.30
2018-03-30T00:56:30.112Z,2.30
2018-03-30T00:58:58.350Z,2.30
2018-03-30T01:01:25.807Z,2.20
2018-03-30T01:03:53.406Z,2.20
2018-03-30T01:06:20.864Z,2.20
2018-03-30T01:08:49.086Z,2.20
2018-03-30T01:11:16.556Z,2.10
2018-03-30T01:13:44.006Z,2.20
2018-03-30T01:16:11.460Z,2.10
2018-03-30T01:18:38.949Z,2.10
2018-03-30T01:21:06.410Z,2.10
2018-03-30T01:23:33.863Z,2.10
2018-03-30T01:26:01.325Z,2.10
2018-03-30T01:28:29.542Z,2.10
2018-03-30T01:30:57.005Z,2.10
2018-03-30T01:33:24.477Z,2.10
2018-03-30T01:35:51.943Z,2.00
2018-03-30T01:38:19.401Z,2.00
2018-03-30T01:40:46.877Z,2.00
2018-03-30T01:43:15.102Z,2.00
2018-03-30T01:45:42.562Z,2.00
2018-03-30T01:48:10.033Z,2.00
2018-03-30T01:50:37.487Z,2.00
2018-03-30T01:53:05.765Z,2.10
2018-03-30T01:55:33.250Z,2.10
2018-03-30T01:58:00.698Z,2.10
2018-03-30T02:00:28.150Z,2.30
2018-03-30T02:02:55.753Z,2.40
2018-03-30T02:05:23.209Z,2.50
2018-03-30T02:07:50.674Z,2.70
2018-03-30T02:10:18.162Z,2.80
2018-03-30T02:12:45.610Z,2.90
2018-03-30T02:15:13.071Z,2.90
2018-03-30T02:17:40.540Z,3.00
2018-03-30T02:20:08.001Z,3.00
2018-03-30T02:22:35.460Z,3.10
2018-03-30T02:25:02.923Z,3.10
2018-03-30T02:27:31.146Z,3.10
2018-03-30T02:29:58.618Z,3.10
2018-03-30T02:32:26.076Z,3.20
2018-03-30T02:34:53.543Z,3.20
2018-03-30T02:37:21.004Z,3.30
2018-03-30T02:39:48.453Z,3.30
2018-03-30T02:42:15.922Z,3.40
2018-03-30T02:44:43.376Z,3.40
2018-03-30T02:47:10.858Z,3.40
2018-03-30T02:49:38.282Z,3.40
2018-03-30T02:52:05.768Z,3.50
2018-03-30T02:54:33.999Z,3.30
2018-03-30T02:57:01.456Z,3.30
2018-03-30T02:59:28.935Z,3.40
2018-03-30T03:01:56.393Z,3.40
2018-03-30T03:04:24.610Z,3.50
2018-03-30T03:06:52.084Z,3.50
2018-03-30T03:09:19.540Z,3.50
2018-03-30T03:11:46.993Z,3.50
2018-03-30T03:14:14.589Z,3.50
2018-03-30T03:16:42.044Z,3.60
2018-03-30T03:19:09.509Z,3.50
2018-03-30T03:21:37.747Z,3.50
2018-03-30T03:24:06.342Z,3.50
2018-03-30T03:26:33.826Z,3.50
2018-03-30T03:29:02.052Z,3.50
2018-03-30T03:31:29.549Z,3.50
2018-03-30T03:33:57.771Z,3.50
2018-03-30T03:36:25.231Z,3.50
2018-03-30T03:38:52.699Z,3.50
2018-03-30T03:41:20.155Z,3.50
2018-03-30T03:43:47.653Z,3.50
2018-03-30T03:46:15.878Z,3.50
2018-03-30T03:48:43.343Z,3.50
2018-03-30T03:51:10.843Z,3.50
2018-03-30T03:53:39.063Z,3.50
2018-03-30T03:56:06.564Z,3.50
2018-03-30T03:58:34.796Z,3.60
2018-03-30T04:01:02.295Z,3.50
2018-03-30T04:03:30.514Z,3.60
2018-03-30T04:05:57.995Z,3.60
2018-03-30T04:08:25.483Z,3.60
2018-03-30T04:10:53.705Z,3.70
2018-03-30T04:13:21.245Z,3.70
2018-03-30T04:15:48.678Z,3.70
2018-03-30T04:18:16.139Z,3.70
2018-03-30T04:20:43.619Z,3.70
2018-03-30T04:23:11.096Z,3.80
2018-03-30T04:25:38.553Z,3.80
2018-03-30T04:28:06.034Z,3.80
2018-03-30T04:30:33.486Z,3.80
2018-03-30T04:33:00.967Z,3.90
2018-03-30T04:35:29.211Z,4.00
2018-03-30T04:37:56.675Z,4.00
2018-03-30T04:40:24.166Z,4.00
2018-03-30T04:42:51.624Z,4.10
2018-03-30T04:45:19.089Z,4.10
2018-03-30T04:47:46.578Z,4.20
2018-03-30T04:50:14.033Z,4.20
2018-03-30T04:52:41.522Z,4.20
2018-03-30T04:55:08.994Z,4.20
2018-03-30T04:57:36.478Z,4.20
2018-03-30T05:00:03.970Z,4.20
2018-03-30T05:02:31.427Z,4.30
2018-03-30T05:04:58.898Z,4.30
2018-03-30T05:07:27.126Z,4.30
2018-03-30T05:09:54.591Z,4.30
2018-03-30T05:12:22.058Z,4.30
2018-03-30T05:14:49.518Z,4.30
2018-03-30T05:17:17.004Z,4.40
2018-03-30T05:19:45.250Z,4.30
2018-03-30T05:22:12.709Z,4.30
2018-03-30T05:24:40.166Z,4.30
2018-03-30T05:27:07.659Z,4.30
2018-03-30T05:29:35.123Z,4.30
2018-03-30T05:32:02.584Z,4.30
2018-03-30T05:34:30.075Z,4.30
2018-03-30T05:36:57.512Z,4.30
2018-03-30T05:39:25.076Z,4.30
2018-03-30T05:41:52.549Z,4.30
2018-03-30T05:44:20.022Z,4.30
2018-03-30T05:46:47.470Z,4.30
2018-03-30T05:49:14.954Z,4.30
2018-03-30T05:51:43.184Z,4.20
2018-03-30T05:54:10.660Z,4.20
2018-03-30T05:56:38.110Z,4.20
2018-03-30T05:59:05.576Z,4.30
2018-03-30T06:01:33.046Z,4.30
2018-03-30T06:04:01.270Z,4.30
2018-03-30T06:06:28.739Z,4.30
2018-03-30T06:08:56.218Z,4.30
2018-03-30T06:11:23.683Z,4.30
2018-03-30T06:13:51.913Z,4.40
2018-03-30T06:16:19.381Z,4.30
2018-03-30T06:18:47.854Z,4.40
2018-03-30T06:21:16.085Z,4.40
2018-03-30T06:23:43.554Z,4.40
2018-03-30T06:26:11.031Z,4.40
2018-03-30T06:28:38.490Z,4.50
2018-03-30T06:31:05.966Z,4.50
2018-03-30T06:33:33.462Z,4.50
2018-03-30T06:36:00.918Z,4.50
2018-03-30T06:38:28.388Z,4.50
2018-03-30T06:40:55.848Z,4.50
2018-03-30T06:43:23.311Z,4.60
2018-03-30T06:45:50.777Z,4.60
2018-03-30T06:48:18.238Z,4.70
2018-03-30T06:53:21.036Z,4.70
2018-03-30T06:55:48.499Z,4.70
2018-03-30T06:58:15.959Z,4.80
2018-03-30T07:00:43.426Z,4.80
2018-03-30T07:03:10.886Z,4.90
2018-03-30T07:05:38.342Z,5.00
2018-03-30T07:08:05.822Z,5.10
2018-03-30T07:10:34.051Z,5.40
2018-03-30T07:13:01.517Z,5.40
2018-03-30T07:15:28.996Z,5.50
2018-03-30T07:17:57.210Z,5.70
2018-03-30T07:20:24.670Z,5.70
2018-03-30T07:22:52.156Z,5.80
2018-03-30T07:25:19.619Z,5.90
2018-03-30T07:27:47.079Z,6.00
2018-03-30T07:30:14.548Z,6.00
2018-03-30T07:32:42.767Z,6.20
2018-03-30T07:35:10.246Z,6.20
2018-03-30T07:37:37.719Z,6.30
2018-03-30T07:40:05.184Z,6.40
2018-03-30T07:42:33.432Z,6.50
2018-03-30T07:45:00.889Z,6.50
2018-03-30T07:47:28.338Z,6.50
2018-03-30T07:49:55.819Z,6.60
2018-03-30T07:52:23.282Z,6.70
2018-03-30T07:54:50.738Z,6.70
2018-03-30T07:57:18.978Z,6.90
2018-03-30T07:59:46.435Z,6.80
2018-03-30T08:02:14.663Z,6.90
2018-03-30T08:04:42.912Z,7.00
2018-03-30T08:07:11.152Z,7.10
2018-03-30T08:09:38.612Z,7.00
2018-03-30T08:12:06.096Z,7.10
2018-03-30T08:14:33.557Z,7.20
2018-03-30T08:17:01.791Z,7.30
2018-03-30T08:19:29.285Z,7.30
2018-03-30T08:21:57.514Z,7.60
2018-03-30T08:24:24.986Z,7.50
2018-03-30T08:26:53.312Z,8.00
2018-03-30T08:29:21.544Z,8.10
2018-03-30T08:31:49.002Z,8.10
2018-03-30T08:34:16.485Z,8.20
2018-03-30T08:36:44.724Z,8.50
2018-03-30T08:39:12.198Z,8.50
2018-03-30T08:41:39.685Z,8.60
2018-03-30T08:44:07.166Z,8.70
2018-03-30T08:46:34.626Z,8.80
2018-03-30T08:49:02.107Z,8.90
2018-03-30T08:51:29.580Z,9.00
2018-03-30T08:53:57.044Z,9.10
2018-03-30T08:56:24.524Z,9.20
2018-03-30T08:58:51.979Z,9.20
2018-03-30T09:01:19.514Z,9.30
2018-03-30T09:03:47.746Z,9.30
2018-03-30T09:06:15.209Z,9.30
2018-03-30T09:08:42.689Z,9.30
2018-03-30T09:11:10.145Z,9.40
2018-03-30T09:13:37.617Z,9.50
2018-03-30T09:16:05.858Z,9.50
2018-03-30T09:18:33.323Z,9.50
2018-03-30T09:21:00.786Z,9.60
2018-03-30T09:23:28.267Z,9.60
2018-03-30T09:25:56.577Z,9.80
2018-03-30T09:28:24.061Z,9.70
2018-03-30T09:30:51.547Z,9.80
2018-03-30T09:33:25.388Z,10.00
2018-03-30T09:35:52.977Z,10.00
2018-03-30T09:38:20.459Z,10.10
2018-03-30T09:40:48.710Z,10.10
2018-03-30T09:43:16.215Z,10.10
2018-03-30T09:45:43.847Z,10.20
2018-03-30T09:48:12.125Z,10.20
2018-03-30T09:50:40.359Z,10.30
2018-03-30T09:53:07.854Z,10.30
2018-03-30T09:55:36.087Z,10.60
2018-03-30T09:58:03.575Z,10.50
2018-03-30T10:00:31.047Z,10.70
2018-03-30T10:03:04.252Z,10.70
2018-03-30T10:05:39.119Z,10.60
2018-03-30T10:08:06.907Z,10.70
2018-03-30T10:10:34.778Z,10.70
2018-03-30T10:13:02.283Z,10.70
2018-03-30T10:15:29.742Z,10.70
2018-03-30T10:17:57.242Z,10.80
2018-03-30T10:20:25.722Z,10.80
2018-03-30T10:22:53.212Z,10.80
2018-03-30T10:25:21.442Z,11.00
2018-03-30T10:27:48.939Z,11.00
2018-03-30T10:30:17.205Z,11.30
2018-03-30T10:32:44.714Z,11.30
2018-03-30T10:35:12.181Z,11.50
2018-03-30T10:37:39.667Z,11.70
2018-03-30T10:40:07.963Z,12.00
2018-03-30T10:42:35.628Z,12.00
2018-03-30T10:45:03.094Z,12.10
2018-03-30T10:47:30.694Z,12.20
2018-03-30T10:49:58.162Z,12.20
2018-03-30T10:52:25.650Z,12.10
2018-03-30T10:54:53.105Z,12.10
2018-03-30T10:57:20.711Z,12.10
2018-03-30T10:59:48.193Z,12.00
2018-03-30T11:02:15.655Z,11.90
2018-03-30T11:04:43.122Z,11.80
2018-03-30T11:07:11.362Z,11.60
2018-03-30T11:09:38.854Z,11.50
2018-03-30T11:12:07.095Z,11.30
2018-03-30T11:14:34.591Z,11.30
2018-03-30T11:17:02.079Z,11.20
2018-03-30T11:19:29.546Z,11.10
2018-03-30T11:21:57.036Z,11.00
2018-03-30T11:24:24.656Z,10.90
2018-03-30T11:26:52.115Z,10.80
2018-03-30T11:29:20.367Z,10.70
2018-03-30T11:31:47.862Z,10.70
2018-03-30T11:34:15.330Z,10.70
2018-03-30T11:36:42.958Z,10.70
2018-03-30T11:39:10.414Z,10.70
2018-03-30T11:41:37.928Z,10.70
2018-03-30T11:44:06.187Z,10.70
2018-03-30T11:46:33.687Z,10.70
2018-03-30T11:49:01.167Z,10.80
2018-03-30T11:51:28.829Z,10.80
2018-03-30T11:53:56.290Z,10.80
2018-03-30T11:56:23.883Z,10.80
2018-03-30T11:58:52.146Z,10.90
2018-03-30T12:01:19.601Z,10.90
2018-03-30T12:03:47.106Z,11.00
2018-03-30T12:06:14.571Z,11.00
2018-03-30T12:08:42.029Z,11.10
2018-03-30T12:11:09.523Z,11.10
2018-03-30T12:13:36.991Z,11.20
2018-03-30T12:16:05.242Z,11.30
2018-03-30T12:18:32.727Z,11.30
2018-03-30T12:21:00.985Z,11.60
2018-03-30T12:23:28.460Z,11.60
2018-03-30T12:25:56.711Z,12.10
2018-03-30T12:28:24.260Z,12.10
2018-03-30T12:30:51.760Z,12.30
2018-03-30T12:33:19.229Z,12.50
2018-03-30T12:35:46.699Z,12.70
2018-03-30T12:38:14.196Z,12.80
2018-03-30T12:40:41.662Z,12.80
2018-03-30T12:43:10.794Z,13.30
2018-03-30T12:45:38.478Z,13.30
2018-03-30T12:48:05.946Z,13.40
2018-03-30T12:50:33.410Z,13.40
2018-03-30T12:53:00.957Z,13.50
2018-03-30T12:55:28.379Z,13.60
2018-03-30T12:57:55.841Z,13.70
2018-03-30T13:00:23.323Z,13.90
2018-03-30T13:02:51.622Z,14.10
2018-03-30T13:05:19.268Z,14.10
2018-03-30T13:07:46.766Z,14.00
2018-03-30T13:10:14.380Z,14.00
2018-03-30T13:12:41.911Z,14.10
2018-03-30T13:15:09.414Z,14.20
2018-03-30T13:17:36.946Z,14.30
2018-03-30T13:20:04.436Z,14.40
2018-03-30T13:22:32.666Z,14.70
2018-03-30T13:25:00.151Z,14.70
2018-03-30T13:27:27.624Z,14.90
2018-03-30T13:29:55.367Z,15.00
2018-03-30T13:32:25.760Z,15.20
2018-03-30T13:34:53.275Z,15.30
2018-03-30T13:37:21.595Z,15.40
2018-03-30T13:39:49.082Z,15.40
2018-03-30T13:42:16.543Z,15.40
2018-03-30T13:44:44.034Z,15.50
2018-03-30T13:47:11.529Z,15.60
2018-03-30T13:49:39.010Z,15.70
2018-03-30T13:52:08.330Z,15.90
2018-03-30T13:54:37.144Z,16.30
2018-03-30T13:57:10.128Z,16.30
2018-03-30T13:59:39.183Z,16.30
2018-03-30T14:05:09.760Z,15.40
2018-03-30T14:07:40.934Z,15.40
2018-03-30T14:10:11.114Z,15.10
2018-03-30T14:12:41.044Z,14.60
2018-03-30T14:15:10.320Z,14.60
2018-03-30T14:17:39.347Z,14.10
2018-03-30T14:23:06.620Z,13.70
2018-03-30T14:25:44.871Z,13.70
2018-03-30T14:31:17.834Z,14.00
2018-03-30T14:33:46.187Z,14.50
2018-03-30T14:39:28.189Z,16.70
2018-03-30T14:41:57.209Z,21.90
2018-03-30T14:44:26.109Z,21.80
2018-03-30T14:47:05.255Z,22.90
2018-03-30T14:49:40.215Z,22.90
2018-03-30T14:52:31.282Z,23.50
2018-03-30T14:55:04.311Z,23.10
2018-03-30T14:57:34.298Z,22.10
2018-03-30T15:00:10.150Z,20.70
2018-03-30T15:02:42.027Z,19.40
2018-03-30T15:05:24.100Z,18.20
2018-03-30T15:10:49.855Z,16.20
2018-03-30T15:13:18.161Z,15.50
2018-03-30T15:16:08.243Z,15.00
2018-03-30T15:18:37.268Z,14.20
2018-03-30T15:21:07.438Z,14.10
2018-03-30T15:23:36.807Z,13.90
2018-03-30T15:26:07.011Z,13.70
2018-03-30T15:28:37.244Z,13.50
2018-03-30T15:31:06.540Z,13.40
2018-03-30T15:33:44.475Z,13.20
2018-03-30T15:36:14.407Z,13.10
2018-03-30T15:38:42.666Z,13.00
2018-03-30T15:41:10.169Z,12.90
2018-03-30T15:43:37.626Z,12.90
2018-03-30T15:46:10.639Z,12.80
2018-03-30T15:48:38.098Z,12.60
2018-03-30T15:51:06.480Z,12.60
2018-03-30T15:53:33.474Z,12.50
2018-03-30T15:56:00.940Z,12.40
2018-03-30T15:58:28.434Z,12.30
2018-03-30T16:00:55.907Z,12.20
2018-03-30T16:03:23.422Z,12.20
2018-03-30T16:05:50.874Z,12.10
2018-03-30T16:08:18.370Z,12.00
2018-03-30T16:11:02.233Z,11.90
2018-03-30T16:13:30.469Z,11.60
2018-03-30T16:15:58.028Z,11.60
2018-03-30T16:18:25.499Z,11.40
2018-03-30T16:20:52.493Z,11.10
2018-03-30T16:23:19.499Z,10.80
2018-03-30T16:25:46.491Z,10.60
2018-03-30T16:28:13.464Z,10.40
2018-03-30T16:30:40.453Z,10.20
2018-03-30T16:33:08.199Z,9.70
2018-03-30T16:35:35.166Z,9.70
2018-03-30T16:38:02.168Z,9.50
2018-03-30T16:40:29.204Z,9.40
2018-03-30T16:42:56.130Z,9.30
2018-03-30T16:45:23.895Z,9.10
2018-03-30T16:47:51.699Z,9.00
2018-03-30T16:50:19.429Z,8.90
2018-03-30T16:52:46.424Z,8.80
2018-03-30T16:55:13.400Z,8.70
2018-03-30T16:57:40.385Z,8.60
2018-03-30T17:00:07.382Z,8.60
2018-03-30T17:02:34.342Z,8.50
2018-03-30T17:05:01.324Z,8.50
2018-03-30T17:07:28.307Z,8.40
2018-03-30T17:09:55.298Z,8.40
2018-03-30T17:12:22.266Z,8.30
2018-03-30T17:14:50.007Z,8.30
2018-03-30T17:17:17.117Z,8.20
2018-03-30T17:19:44.088Z,8.20
2018-03-30T17:22:11.060Z,8.20
2018-03-30T17:24:38.825Z,8.00
2018-03-30T17:27:06.588Z,8.00
2018-03-30T17:29:34.322Z,7.90
2018-03-30T17:32:01.297Z,7.90
2018-03-30T17:34:29.051Z,7.90
2018-03-30T17:36:56.868Z,7.90
2018-03-30T17:39:23.862Z,7.90
2018-03-30T17:41:51.609Z,7.90
2018-03-30T17:44:18.606Z,7.90
2018-03-30T17:46:45.634Z,7.90
2018-03-30T17:49:12.639Z,7.80
2018-03-30T17:51:39.647Z,7.80
2018-03-30T17:54:06.624Z,7.70
2018-03-30T17:56:33.585Z,7.70
2018-03-30T18:02:00.969Z,7.60
2018-03-30T18:04:28.722Z,7.60
2018-03-30T18:06:56.466Z,7.60
2018-03-30T18:09:23.463Z,7.60
2018-03-30T18:11:50.455Z,7.60
2018-03-30T18:14:17.443Z,7.60
2018-03-30T18:16:44.416Z,7.50
2018-03-30T18:19:11.402Z,7.60
2018-03-30T18:21:38.369Z,7.60
2018-03-30T18:24:05.362Z,7.50
2018-03-30T18:26:32.338Z,7.50
2018-03-30T18:28:59.339Z,7.50
2018-03-30T18:31:26.305Z,7.50
2018-03-30T18:33:53.310Z,7.50
2018-03-30T18:36:20.275Z,7.40
2018-03-30T18:38:47.586Z,7.40
2018-03-30T18:41:15.347Z,7.30
2018-03-30T18:43:43.083Z,7.30
2018-03-30T18:46:10.143Z,7.30
2018-03-30T18:48:37.875Z,7.30
2018-03-30T18:51:04.832Z,7.20
2018-03-30T18:53:31.966Z,7.20
2018-03-30T18:55:58.924Z,7.20
2018-03-30T18:58:25.898Z,7.20
2018-03-30T19:00:53.650Z,7.10
2018-03-30T19:03:21.382Z,7.10
2018-03-30T19:05:48.350Z,7.10
2018-03-30T19:08:15.337Z,7.10
2018-03-30T19:10:42.301Z,7.10
2018-03-30T19:13:09.270Z,7.00
2018-03-30T19:15:36.319Z,7.00
2018-03-30T19:18:03.278Z,7.00
2018-03-30T19:20:30.249Z,7.00
2018-03-30T19:22:57.238Z,7.00
2018-03-30T19:25:24.213Z,7.00
2018-03-30T19:27:51.161Z,7.00
2018-03-30T19:30:19.107Z,7.00
2018-03-30T19:32:46.073Z,6.90
2018-03-30T19:35:13.816Z,6.90
2018-03-30T19:37:40.799Z,6.90
2018-03-30T19:40:07.780Z,6.90
2018-03-30T19:42:34.757Z,6.90
2018-03-30T19:45:01.740Z,6.90
2018-03-30T19:47:28.703Z,6.80
2018-03-30T19:49:55.700Z,6.80
2018-03-30T19:52:22.672Z,6.80
2018-03-30T19:54:49.646Z,6.80
2018-03-30T19:57:16.618Z,6.80
2018-03-30T19:59:43.842Z,6.80
2018-03-30T20:02:10.815Z,6.80
2018-03-30T20:04:38.553Z,6.70
2018-03-30T20:07:05.551Z,6.70
2018-03-30T20:09:32.516Z,6.70
2018-03-30T20:11:59.493Z,6.70
2018-03-30T20:14:26.466Z,6.60
2018-03-30T20:16:53.445Z,6.60
2018-03-30T20:19:20.406Z,6.60
2018-03-30T20:21:47.409Z,6.60
2018-03-30T20:24:14.374Z,6.70
2018-03-30T20:26:41.342Z,6.70
2018-03-30T20:29:08.322Z,6.60
2018-03-30T20:31:36.048Z,6.60
2018-03-30T20:34:03.019Z,6.60
2018-03-30T20:36:30.899Z,6.60
2018-03-30T20:38:57.863Z,6.60
2018-03-30T20:41:24.912Z,6.60
2018-03-30T20:43:52.037Z,6.60
2018-03-30T20:46:19.008Z,6.60
2018-03-30T20:48:45.972Z,6.60
2018-03-30T20:51:13.112Z,6.60
2018-03-30T20:53:40.074Z,6.60
2018-03-30T20:56:07.042Z,6.60
2018-03-30T20:58:34.786Z,6.50
2018-03-30T21:01:01.752Z,6.50
2018-03-30T21:03:29.501Z,6.50
2018-03-30T21:05:56.483Z,6.50
2018-03-30T21:08:23.513Z,6.50
2018-03-30T21:10:50.434Z,6.50
2018-03-30T21:13:17.414Z,6.40
2018-03-30T21:15:44.381Z,6.40
2018-03-30T21:18:11.358Z,6.40
2018-03-30T21:20:38.332Z,6.40
2018-03-30T21:23:05.309Z,6.40
2018-03-30T21:25:32.271Z,6.40
2018-03-30T21:27:59.257Z,6.40
2018-03-30T21:30:27.027Z,6.30
2018-03-30T21:32:54.773Z,6.30
2018-03-30T21:35:21.767Z,6.30
2018-03-30T21:37:49.551Z,6.30
2018-03-30T21:40:17.253Z,6.30
2018-03-30T21:42:45.015Z,6.30
2018-03-30T21:45:12.770Z,6.30
2018-03-30T21:47:40.505Z,6.20
2018-03-30T21:50:07.494Z,6.30
2018-03-30T21:52:34.465Z,6.30
2018-03-30T21:55:01.440Z,6.30
2018-03-30T21:57:28.441Z,6.30
2018-03-30T21:59:55.410Z,6.30
2018-03-30T22:02:22.389Z,6.30
2018-03-30T22:04:49.392Z,6.30
2018-03-30T22:07:16.366Z,6.30
2018-03-30T22:09:43.354Z,6.30
2018-03-30T22:12:10.338Z,6.20
2018-03-30T22:14:37.326Z,6.20
2018-03-30T22:17:05.061Z,6.20
2018-03-30T22:19:32.057Z,6.10
2018-03-30T22:21:59.014Z,6.20
2018-03-30T22:24:26.001Z,6.20
2018-03-30T22:26:52.975Z,6.20
2018-03-30T22:29:20.701Z,6.10
2018-03-30T22:31:47.726Z,6.10
2018-03-30T22:34:14.692Z,6.10
2018-03-30T22:36:41.717Z,6.10
2018-03-30T22:39:08.743Z,6.00
2018-03-30T22:41:35.711Z,6.00
2018-03-30T22:44:02.712Z,6.00
2018-03-30T22:46:30.446Z,6.00
2018-03-30T22:48:57.444Z,6.00
2018-03-30T22:51:24.414Z,6.00
2018-03-30T22:53:51.373Z,6.00
2018-03-30T22:56:18.362Z,6.00
2018-03-30T22:58:45.333Z,6.00
2018-03-30T23:01:12.326Z,6.00
2018-03-30T23:03:40.158Z,5.90
2018-03-30T23:06:07.120Z,5.90
2018-03-30T23:08:34.110Z,5.90
2018-03-30T23:11:01.099Z,5.90
2018-03-30T23:13:28.065Z,5.90
2018-03-30T23:15:55.820Z,5.90
2018-03-30T23:18:22.810Z,5.90
2018-03-30T23:20:49.810Z,5.90
2018-03-30T23:23:16.782Z,5.90
2018-03-30T23:25:43.778Z,5.90
2018-03-30T23:28:10.740Z,5.80
2018-03-30T23:30:37.734Z,5.80
2018-03-30T23:33:04.722Z,5.80
2018-03-30T23:35:31.684Z,5.80
2018-03-30T23:37:59.466Z,5.80
2018-03-30T23:40:26.437Z,5.80
2018-03-30T23:42:53.413Z,5.80
2018-03-30T23:45:20.381Z,5.80
2018-03-30T23:47:48.138Z,5.80
2018-03-30T23:50:15.890Z,5.70
2018-03-30T23:52:42.853Z,5.70
2018-03-30T23:55:10.605Z,5.70
2018-03-30T23:57:38.353Z,5.70
